sensor_id;sensor_type;location;lat;lon;timestamp;P1;durP1;ratioP1;P2;durP2;ratioP2
66521;SDS011;53349;53.538;8.584;2022-09-12T00:01:57;10.55;;;6.38;;
66521;SDS011;53349;53.538;8.584;2022-09-12T00:04:23;10.17;;;6.40;;
66521;SDS011;53349;53.538;8.584;2022-09-12T00:06:49;11.53;;;6.47;;
66521;SDS011;53349;53.538;8.584;2022-09-12T00:09:14;10.98;;;6.20;;
66521;SDS011;53349;53.538;8.584;2022-09-12T00:11:42;10.27;;;6.70;;
66521;SDS011;53349;53.538;8.584;2022-09-12T00:14:12;11.75;;;7.07;;
66521;SDS011;53349;53.538;8.584;2022-09-12T00:16:39;11.55;;;6.47;;
66521;SDS011;53349;53.538;8.584;2022-09-12T00:19:06;12.63;;;6.95;;
66521;SDS011;53349;53.538;8.584;2022-09-12T00:21:33;11.23;;;6.40;;
66521;SDS011;53349;53.538;8.584;2022-09-12T00:23:59;12.38;;;6.90;;
66521;SDS011;53349;53.538;8.584;2022-09-12T00:26:25;10.45;;;6.43;;
66521;SDS011;53349;53.538;8.584;2022-09-12T00:28:51;9.50;;;5.97;;
66521;SDS011;53349;53.538;8.584;2022-09-12T00:31:17;9.07;;;6.10;;
66521;SDS011;53349;53.538;8.584;2022-09-12T00:33:44;10.77;;;6.18;;
66521;SDS011;53349;53.538;8.584;2022-09-12T00:36:11;11.00;;;6.47;;
66521;SDS011;53349;53.538;8.584;2022-09-12T00:38:42;9.82;;;5.85;;
66521;SDS011;53349;53.538;8.584;2022-09-12T00:41:31;8.57;;;5.88;;
66521;SDS011;53349;53.538;8.584;2022-09-12T00:43:59;11.75;;;7.03;;
66521;SDS011;53349;53.538;8.584;2022-09-12T00:49:23;10.02;;;6.32;;
66521;SDS011;53349;53.538;8.584;2022-09-12T00:52:07;11.73;;;6.60;;
66521;SDS011;53349;53.538;8.584;2022-09-12T00:54:39;12.05;;;6.55;;
66521;SDS011;53349;53.538;8.584;2022-09-12T00:57:09;12.93;;;7.40;;
66521;SDS011;53349;53.538;8.584;2022-09-12T00:59:38;11.07;;;7.05;;
66521;SDS011;53349;53.538;8.584;2022-09-12T01:02:07;11.15;;;6.97;;
66521;SDS011;53349;53.538;8.584;2022-09-12T01:04:32;12.97;;;7.70;;
66521;SDS011;53349;53.538;8.584;2022-09-12T01:07:01;11.85;;;7.28;;
66521;SDS011;53349;53.538;8.584;2022-09-12T01:09:28;12.20;;;7.47;;
66521;SDS011;53349;53.538;8.584;2022-09-12T01:11:54;12.23;;;7.47;;
66521;SDS011;53349;53.538;8.584;2022-09-12T01:14:20;13.27;;;7.22;;
66521;SDS011;53349;53.538;8.584;2022-09-12T01:16:46;14.20;;;7.90;;
66521;SDS011;53349;53.538;8.584;2022-09-12T01:25:45;14.30;;;8.68;;
66521;SDS011;53349;53.538;8.584;2022-09-12T01:28:57;14.27;;;8.33;;
66521;SDS011;53349;53.538;8.584;2022-09-12T01:31:40;15.35;;;8.70;;
66521;SDS011;53349;53.538;8.584;2022-09-12T01:42:50;15.63;;;9.40;;
66521;SDS011;53349;53.538;8.584;2022-09-12T01:48:18;16.10;;;8.77;;
66521;SDS011;53349;53.538;8.584;2022-09-12T01:50:49;16.27;;;9.57;;
66521;SDS011;53349;53.538;8.584;2022-09-12T01:53:22;17.70;;;10.40;;
66521;SDS011;53349;53.538;8.584;2022-09-12T01:55:54;18.27;;;10.33;;
66521;SDS011;53349;53.538;8.584;2022-09-12T01:58:27;16.33;;;9.45;;
66521;SDS011;53349;53.538;8.584;2022-09-12T02:06:48;19.42;;;10.40;;
66521;SDS011;53349;53.538;8.584;2022-09-12T02:09:19;18.17;;;9.60;;
66521;SDS011;53349;53.538;8.584;2022-09-12T02:11:48;20.52;;;9.90;;
66521;SDS011;53349;53.538;8.584;2022-09-12T02:14:23;17.02;;;9.50;;
66521;SDS011;53349;53.538;8.584;2022-09-12T02:16:53;17.02;;;9.30;;
66521;SDS011;53349;53.538;8.584;2022-09-12T02:19:23;17.63;;;9.70;;
66521;SDS011;53349;53.538;8.584;2022-09-12T02:21:54;18.00;;;10.27;;
66521;SDS011;53349;53.538;8.584;2022-09-12T02:24:24;16.60;;;9.75;;
66521;SDS011;53349;53.538;8.584;2022-09-12T02:30:02;20.33;;;9.45;;
66521;SDS011;53349;53.538;8.584;2022-09-12T02:32:31;18.20;;;9.88;;
66521;SDS011;53349;53.538;8.584;2022-09-12T02:35:15;19.97;;;9.87;;
66521;SDS011;53349;53.538;8.584;2022-09-12T02:38:13;18.90;;;9.73;;
66521;SDS011;53349;53.538;8.584;2022-09-12T02:40:47;16.13;;;8.75;;
66521;SDS011;53349;53.538;8.584;2022-09-12T02:43:13;17.90;;;9.93;;
66521;SDS011;53349;53.538;8.584;2022-09-12T02:45:38;17.37;;;9.83;;
66521;SDS011;53349;53.538;8.584;2022-09-12T02:48:09;19.23;;;9.65;;
66521;SDS011;53349;53.538;8.584;2022-09-12T02:50:38;17.50;;;9.45;;
66521;SDS011;53349;53.538;8.584;2022-09-12T02:53:06;18.30;;;10.10;;
66521;SDS011;53349;53.538;8.584;2022-09-12T02:55:32;20.65;;;10.43;;
66521;SDS011;53349;53.538;8.584;2022-09-12T02:58:03;19.25;;;10.13;;
66521;SDS011;53349;53.538;8.584;2022-09-12T03:00:33;18.40;;;9.85;;
66521;SDS011;53349;53.538;8.584;2022-09-12T03:05:51;18.90;;;9.67;;
66521;SDS011;53349;53.538;8.584;2022-09-12T03:08:27;20.10;;;10.23;;
66521;SDS011;53349;53.538;8.584;2022-09-12T03:11:27;16.10;;;9.23;;
66521;SDS011;53349;53.538;8.584;2022-09-12T03:14:06;18.95;;;9.95;;
66521;SDS011;53349;53.538;8.584;2022-09-12T03:19:44;19.70;;;10.30;;
66521;SDS011;53349;53.538;8.584;2022-09-12T03:22:37;18.10;;;10.05;;
66521;SDS011;53349;53.538;8.584;2022-09-12T03:25:12;17.55;;;9.85;;
66521;SDS011;53349;53.538;8.584;2022-09-12T03:27:51;22.50;;;11.40;;
66521;SDS011;53349;53.538;8.584;2022-09-12T03:30:22;20.10;;;11.05;;
66521;SDS011;53349;53.538;8.584;2022-09-12T03:32:49;20.15;;;9.85;;
66521;SDS011;53349;53.538;8.584;2022-09-12T03:35:17;18.17;;;9.60;;
66521;SDS011;53349;53.538;8.584;2022-09-12T03:37:45;19.35;;;10.18;;
66521;SDS011;53349;53.538;8.584;2022-09-12T03:40:12;18.73;;;10.00;;
66521;SDS011;53349;53.538;8.584;2022-09-12T03:42:37;19.67;;;9.93;;
66521;SDS011;53349;53.538;8.584;2022-09-12T03:45:04;19.90;;;10.38;;
66521;SDS011;53349;53.538;8.584;2022-09-12T03:47:30;19.90;;;9.88;;
66521;SDS011;53349;53.538;8.584;2022-09-12T03:49:56;18.07;;;9.77;;
66521;SDS011;53349;53.538;8.584;2022-09-12T03:52:21;20.43;;;10.27;;
66521;SDS011;53349;53.538;8.584;2022-09-12T03:54:47;18.67;;;10.50;;
66521;SDS011;53349;53.538;8.584;2022-09-12T03:57:12;22.30;;;11.80;;
66521;SDS011;53349;53.538;8.584;2022-09-12T03:59:38;21.30;;;11.13;;
66521;SDS011;53349;53.538;8.584;2022-09-12T04:02:03;21.20;;;10.80;;
66521;SDS011;53349;53.538;8.584;2022-09-12T04:04:29;19.23;;;10.13;;
66521;SDS011;53349;53.538;8.584;2022-09-12T04:06:54;17.23;;;9.57;;
66521;SDS011;53349;53.538;8.584;2022-09-12T04:09:20;18.70;;;10.67;;
66521;SDS011;53349;53.538;8.584;2022-09-12T04:11:45;19.02;;;10.48;;
66521;SDS011;53349;53.538;8.584;2022-09-12T04:14:10;18.33;;;9.80;;
66521;SDS011;53349;53.538;8.584;2022-09-12T04:16:36;19.43;;;10.77;;
66521;SDS011;53349;53.538;8.584;2022-09-12T04:19:01;19.50;;;10.17;;
66521;SDS011;53349;53.538;8.584;2022-09-12T04:21:27;18.27;;;10.43;;
66521;SDS011;53349;53.538;8.584;2022-09-12T04:23:52;19.35;;;10.73;;
66521;SDS011;53349;53.538;8.584;2022-09-12T04:26:18;21.07;;;10.57;;
66521;SDS011;53349;53.538;8.584;2022-09-12T04:28:44;18.50;;;10.23;;
66521;SDS011;53349;53.538;8.584;2022-09-12T04:31:14;21.50;;;10.60;;
66521;SDS011;53349;53.538;8.584;2022-09-12T04:33:42;20.38;;;10.40;;
66521;SDS011;53349;53.538;8.584;2022-09-12T04:36:14;20.20;;;10.27;;
66521;SDS011;53349;53.538;8.584;2022-09-12T04:38:41;19.45;;;10.38;;
66521;SDS011;53349;53.538;8.584;2022-09-12T04:41:20;19.48;;;10.35;;
66521;SDS011;53349;53.538;8.584;2022-09-12T04:43:51;19.52;;;10.57;;
66521;SDS011;53349;53.538;8.584;2022-09-12T04:46:18;20.75;;;11.13;;
66521;SDS011;53349;53.538;8.584;2022-09-12T04:48:44;21.63;;;11.23;;
66521;SDS011;53349;53.538;8.584;2022-09-12T04:51:43;21.92;;;10.82;;
66521;SDS011;53349;53.538;8.584;2022-09-12T04:54:04;23.08;;;11.60;;
66521;SDS011;53349;53.538;8.584;2022-09-12T04:56:31;20.92;;;11.55;;
66521;SDS011;53349;53.538;8.584;2022-09-12T04:58:58;21.43;;;10.77;;
66521;SDS011;53349;53.538;8.584;2022-09-12T05:01:25;19.65;;;10.75;;
66521;SDS011;53349;53.538;8.584;2022-09-12T05:03:52;22.25;;;11.90;;
66521;SDS011;53349;53.538;8.584;2022-09-12T05:06:19;21.58;;;11.32;;
66521;SDS011;53349;53.538;8.584;2022-09-12T05:08:46;22.23;;;11.77;;
66521;SDS011;53349;53.538;8.584;2022-09-12T05:11:15;23.97;;;12.10;;
66521;SDS011;53349;53.538;8.584;2022-09-12T05:13:42;21.10;;;11.27;;
66521;SDS011;53349;53.538;8.584;2022-09-12T05:16:11;23.67;;;11.50;;
66521;SDS011;53349;53.538;8.584;2022-09-12T05:18:39;25.25;;;11.93;;
66521;SDS011;53349;53.538;8.584;2022-09-12T05:21:06;26.37;;;12.43;;
66521;SDS011;53349;53.538;8.584;2022-09-12T05:23:33;25.88;;;12.50;;
66521;SDS011;53349;53.538;8.584;2022-09-12T05:26:00;26.50;;;13.05;;
66521;SDS011;53349;53.538;8.584;2022-09-12T05:28:34;23.98;;;12.68;;
66521;SDS011;53349;53.538;8.584;2022-09-12T05:31:05;26.35;;;13.15;;
66521;SDS011;53349;53.538;8.584;2022-09-12T05:33:32;26.30;;;13.40;;
66521;SDS011;53349;53.538;8.584;2022-09-12T05:35:58;25.95;;;12.18;;
66521;SDS011;53349;53.538;8.584;2022-09-12T05:38:24;24.45;;;12.25;;
66521;SDS011;53349;53.538;8.584;2022-09-12T05:40:52;26.70;;;13.00;;
66521;SDS011;53349;53.538;8.584;2022-09-12T05:43:18;28.90;;;13.67;;
66521;SDS011;53349;53.538;8.584;2022-09-12T05:45:44;28.30;;;13.75;;
66521;SDS011;53349;53.538;8.584;2022-09-12T05:48:10;28.58;;;13.52;;
66521;SDS011;53349;53.538;8.584;2022-09-12T05:50:35;26.53;;;13.37;;
66521;SDS011;53349;53.538;8.584;2022-09-12T05:53:00;28.07;;;13.47;;
66521;SDS011;53349;53.538;8.584;2022-09-12T05:55:26;27.07;;;13.43;;
66521;SDS011;53349;53.538;8.584;2022-09-12T05:57:51;28.20;;;13.33;;
66521;SDS011;53349;53.538;8.584;2022-09-12T06:00:16;26.90;;;13.73;;
66521;SDS011;53349;53.538;8.584;2022-09-12T06:02:43;27.60;;;13.90;;
66521;SDS011;53349;53.538;8.584;2022-09-12T06:05:08;25.75;;;12.88;;
66521;SDS011;53349;53.538;8.584;2022-09-12T06:07:34;27.67;;;13.73;;
66521;SDS011;53349;53.538;8.584;2022-09-12T06:10:00;25.27;;;13.00;;
66521;SDS011;53349;53.538;8.584;2022-09-12T06:12:29;26.33;;;12.90;;
66521;SDS011;53349;53.538;8.584;2022-09-12T06:14:54;25.20;;;12.60;;
66521;SDS011;53349;53.538;8.584;2022-09-12T06:17:20;21.40;;;12.13;;
66521;SDS011;53349;53.538;8.584;2022-09-12T06:19:46;23.98;;;12.70;;
66521;SDS011;53349;53.538;8.584;2022-09-12T06:22:11;21.77;;;12.02;;
66521;SDS011;53349;53.538;8.584;2022-09-12T06:24:37;22.20;;;12.55;;
66521;SDS011;53349;53.538;8.584;2022-09-12T06:27:03;20.40;;;11.23;;
66521;SDS011;53349;53.538;8.584;2022-09-12T06:29:28;21.23;;;11.27;;
66521;SDS011;53349;53.538;8.584;2022-09-12T06:31:56;20.48;;;11.25;;
66521;SDS011;53349;53.538;8.584;2022-09-12T06:34:22;19.30;;;11.13;;
66521;SDS011;53349;53.538;8.584;2022-09-12T06:36:47;21.63;;;10.90;;
66521;SDS011;53349;53.538;8.584;2022-09-12T06:39:14;20.70;;;10.98;;
66521;SDS011;53349;53.538;8.584;2022-09-12T06:41:41;19.92;;;10.35;;
66521;SDS011;53349;53.538;8.584;2022-09-12T06:44:08;18.93;;;10.03;;
66521;SDS011;53349;53.538;8.584;2022-09-12T06:46:40;15.90;;;9.87;;
66521;SDS011;53349;53.538;8.584;2022-09-12T06:49:05;17.25;;;9.63;;
66521;SDS011;53349;53.538;8.584;2022-09-12T06:51:32;17.57;;;10.13;;
66521;SDS011;53349;53.538;8.584;2022-09-12T06:54:00;20.70;;;12.32;;
66521;SDS011;53349;53.538;8.584;2022-09-12T06:56:26;17.63;;;10.25;;
66521;SDS011;53349;53.538;8.584;2022-09-12T06:58:52;14.90;;;9.23;;
66521;SDS011;53349;53.538;8.584;2022-09-12T07:01:21;16.85;;;10.27;;
66521;SDS011;53349;53.538;8.584;2022-09-12T07:03:51;20.65;;;12.95;;
66521;SDS011;53349;53.538;8.584;2022-09-12T07:06:20;17.40;;;9.30;;
66521;SDS011;53349;53.538;8.584;2022-09-12T07:08:48;14.07;;;8.85;;
66521;SDS011;53349;53.538;8.584;2022-09-12T07:13:43;15.60;;;9.18;;
66521;SDS011;53349;53.538;8.584;2022-09-12T07:16:10;15.90;;;8.40;;
66521;SDS011;53349;53.538;8.584;2022-09-12T07:18:37;16.63;;;8.43;;
66521;SDS011;53349;53.538;8.584;2022-09-12T07:21:04;14.32;;;8.38;;
66521;SDS011;53349;53.538;8.584;2022-09-12T07:23:31;18.23;;;10.00;;
66521;SDS011;53349;53.538;8.584;2022-09-12T07:25:57;17.63;;;9.87;;
66521;SDS011;53349;53.538;8.584;2022-09-12T07:28:27;21.15;;;9.77;;
66521;SDS011;53349;53.538;8.584;2022-09-12T07:30:54;18.88;;;10.25;;
66521;SDS011;53349;53.538;8.584;2022-09-12T07:33:26;17.87;;;9.70;;
66521;SDS011;53349;53.538;8.584;2022-09-12T07:35:52;18.98;;;10.90;;
66521;SDS011;53349;53.538;8.584;2022-09-12T07:38:21;19.33;;;10.65;;
66521;SDS011;53349;53.538;8.584;2022-09-12T07:40:46;19.02;;;10.55;;
66521;SDS011;53349;53.538;8.584;2022-09-12T07:43:11;23.20;;;11.27;;
66521;SDS011;53349;53.538;8.584;2022-09-12T07:45:37;21.70;;;11.90;;
66521;SDS011;53349;53.538;8.584;2022-09-12T07:48:05;20.17;;;10.90;;
66521;SDS011;53349;53.538;8.584;2022-09-12T07:50:31;22.37;;;12.53;;
66521;SDS011;53349;53.538;8.584;2022-09-12T07:52:57;22.17;;;12.23;;
66521;SDS011;53349;53.538;8.584;2022-09-12T07:55:23;22.02;;;12.02;;
66521;SDS011;53349;53.538;8.584;2022-09-12T07:57:49;22.80;;;11.93;;
66521;SDS011;53349;53.538;8.584;2022-09-12T08:00:15;23.30;;;12.93;;
66521;SDS011;53349;53.538;8.584;2022-09-12T08:02:40;24.77;;;13.00;;
66521;SDS011;53349;53.538;8.584;2022-09-12T08:05:06;24.73;;;12.67;;
66521;SDS011;53349;53.538;8.584;2022-09-12T08:07:31;25.43;;;13.07;;
66521;SDS011;53349;53.538;8.584;2022-09-12T08:09:58;22.65;;;12.82;;
66521;SDS011;53349;53.538;8.584;2022-09-12T08:12:24;23.75;;;13.13;;
66521;SDS011;53349;53.538;8.584;2022-09-12T08:14:52;24.85;;;13.90;;
66521;SDS011;53349;53.538;8.584;2022-09-12T08:17:17;24.00;;;13.27;;
66521;SDS011;53349;53.538;8.584;2022-09-12T08:19:42;24.40;;;13.20;;
66521;SDS011;53349;53.538;8.584;2022-09-12T08:22:09;28.13;;;14.10;;
66521;SDS011;53349;53.538;8.584;2022-09-12T08:24:35;26.27;;;13.75;;
66521;SDS011;53349;53.538;8.584;2022-09-12T08:27:00;23.13;;;12.83;;
66521;SDS011;53349;53.538;8.584;2022-09-12T08:29:26;25.80;;;13.80;;
66521;SDS011;53349;53.538;8.584;2022-09-12T08:31:51;27.77;;;14.10;;
66521;SDS011;53349;53.538;8.584;2022-09-12T08:34:17;27.40;;;13.90;;
66521;SDS011;53349;53.538;8.584;2022-09-12T08:36:43;25.40;;;13.93;;
66521;SDS011;53349;53.538;8.584;2022-09-12T08:39:10;24.25;;;13.75;;
66521;SDS011;53349;53.538;8.584;2022-09-12T08:41:44;23.95;;;13.68;;
66521;SDS011;53349;53.538;8.584;2022-09-12T08:49:33;28.80;;;14.82;;
66521;SDS011;53349;53.538;8.584;2022-09-12T08:53:09;25.38;;;14.68;;
66521;SDS011;53349;53.538;8.584;2022-09-12T08:55:31;28.70;;;15.10;;
66521;SDS011;53349;53.538;8.584;2022-09-12T08:57:57;28.60;;;14.70;;
66521;SDS011;53349;53.538;8.584;2022-09-12T09:00:26;26.52;;;15.10;;
66521;SDS011;53349;53.538;8.584;2022-09-12T09:03:18;26.23;;;14.93;;
66521;SDS011;53349;53.538;8.584;2022-09-12T09:09:03;28.70;;;15.32;;
66521;SDS011;53349;53.538;8.584;2022-09-12T09:17:13;27.45;;;14.65;;
66521;SDS011;53349;53.538;8.584;2022-09-12T09:19:45;28.30;;;15.90;;
66521;SDS011;53349;53.538;8.584;2022-09-12T09:22:28;29.38;;;16.17;;
66521;SDS011;53349;53.538;8.584;2022-09-12T09:25:01;27.30;;;15.33;;
66521;SDS011;53349;53.538;8.584;2022-09-12T09:27:42;29.52;;;16.38;;
66521;SDS011;53349;53.538;8.584;2022-09-12T09:30:32;28.10;;;15.60;;
66521;SDS011;53349;53.538;8.584;2022-09-12T09:33:00;26.23;;;14.95;;
66521;SDS011;53349;53.538;8.584;2022-09-12T09:35:43;25.00;;;14.75;;
66521;SDS011;53349;53.538;8.584;2022-09-12T09:43:43;25.08;;;14.55;;
66521;SDS011;53349;53.538;8.584;2022-09-12T09:46:09;21.48;;;13.40;;
66521;SDS011;53349;53.538;8.584;2022-09-12T09:48:36;21.63;;;13.43;;
66521;SDS011;53349;53.538;8.584;2022-09-12T09:51:06;24.02;;;13.85;;
66521;SDS011;53349;53.538;8.584;2022-09-12T09:58:51;22.55;;;12.70;;
66521;SDS011;53349;53.538;8.584;2022-09-12T10:01:17;22.97;;;12.60;;
66521;SDS011;53349;53.538;8.584;2022-09-12T10:03:47;21.67;;;12.07;;
66521;SDS011;53349;53.538;8.584;2022-09-12T10:06:30;21.37;;;12.97;;
66521;SDS011;53349;53.538;8.584;2022-09-12T10:09:20;20.65;;;12.38;;
66521;SDS011;53349;53.538;8.584;2022-09-12T10:11:51;22.15;;;12.82;;
66521;SDS011;53349;53.538;8.584;2022-09-12T10:16:59;21.88;;;12.55;;
66521;SDS011;53349;53.538;8.584;2022-09-12T10:19:35;20.43;;;12.50;;
66521;SDS011;53349;53.538;8.584;2022-09-12T10:22:02;23.40;;;12.98;;
66521;SDS011;53349;53.538;8.584;2022-09-12T10:24:38;22.33;;;12.95;;
66521;SDS011;53349;53.538;8.584;2022-09-12T10:29:49;22.50;;;12.80;;
66521;SDS011;53349;53.538;8.584;2022-09-12T10:32:35;21.20;;;12.30;;
66521;SDS011;53349;53.538;8.584;2022-09-12T10:35:16;21.67;;;11.90;;
66521;SDS011;53349;53.538;8.584;2022-09-12T10:37:53;21.80;;;12.55;;
66521;SDS011;53349;53.538;8.584;2022-09-12T10:40:23;21.63;;;12.65;;
66521;SDS011;53349;53.538;8.584;2022-09-12T10:42:55;23.90;;;13.45;;
66521;SDS011;53349;53.538;8.584;2022-09-12T10:45:25;21.67;;;13.20;;
66521;SDS011;53349;53.538;8.584;2022-09-12T10:47:56;20.90;;;11.85;;
66521;SDS011;53349;53.538;8.584;2022-09-12T10:52:52;18.52;;;11.20;;
66521;SDS011;53349;53.538;8.584;2022-09-12T10:55:19;19.80;;;10.88;;
66521;SDS011;53349;53.538;8.584;2022-09-12T10:57:53;17.03;;;9.80;;
66521;SDS011;53349;53.538;8.584;2022-09-12T11:00:24;17.27;;;9.70;;
66521;SDS011;53349;53.538;8.584;2022-09-12T11:05:52;15.50;;;8.93;;
66521;SDS011;53349;53.538;8.584;2022-09-12T11:16:52;19.65;;;10.15;;
66521;SDS011;53349;53.538;8.584;2022-09-12T11:19:43;14.65;;;8.88;;
66521;SDS011;53349;53.538;8.584;2022-09-12T11:25:30;13.53;;;7.80;;
66521;SDS011;53349;53.538;8.584;2022-09-12T11:28:27;13.55;;;7.97;;
66521;SDS011;53349;53.538;8.584;2022-09-12T11:31:10;16.45;;;8.00;;
66521;SDS011;53349;53.538;8.584;2022-09-12T11:33:45;12.85;;;7.65;;
66521;SDS011;53349;53.538;8.584;2022-09-12T11:36:32;16.80;;;8.27;;
66521;SDS011;53349;53.538;8.584;2022-09-12T11:39:22;12.83;;;7.97;;
66521;SDS011;53349;53.538;8.584;2022-09-12T11:41:57;13.88;;;7.72;;
66521;SDS011;53349;53.538;8.584;2022-09-12T11:44:27;13.15;;;7.10;;
66521;SDS011;53349;53.538;8.584;2022-09-12T11:46:59;14.88;;;7.50;;
66521;SDS011;53349;53.538;8.584;2022-09-12T11:49:34;13.50;;;7.95;;
66521;SDS011;53349;53.538;8.584;2022-09-12T11:57:24;12.65;;;6.53;;
66521;SDS011;53349;53.538;8.584;2022-09-12T12:08:13;13.05;;;5.63;;
66521;SDS011;53349;53.538;8.584;2022-09-12T12:10:40;9.05;;;5.57;;
66521;SDS011;53349;53.538;8.584;2022-09-12T12:16:16;10.80;;;5.65;;
66521;SDS011;53349;53.538;8.584;2022-09-12T12:18:56;9.67;;;5.20;;
66521;SDS011;53349;53.538;8.584;2022-09-12T12:21:39;9.30;;;4.60;;
66521;SDS011;53349;53.538;8.584;2022-09-12T12:29:02;8.88;;;5.10;;
66521;SDS011;53349;53.538;8.584;2022-09-12T12:31:29;9.45;;;5.28;;
66521;SDS011;53349;53.538;8.584;2022-09-12T12:33:59;9.87;;;4.80;;
66521;SDS011;53349;53.538;8.584;2022-09-12T12:38:54;7.87;;;5.00;;
66521;SDS011;53349;53.538;8.584;2022-09-12T12:43:46;8.87;;;4.50;;
66521;SDS011;53349;53.538;8.584;2022-09-12T12:46:16;9.20;;;4.47;;
66521;SDS011;53349;53.538;8.584;2022-09-12T12:54:28;9.30;;;4.10;;
66521;SDS011;53349;53.538;8.584;2022-09-12T12:57:03;8.27;;;3.40;;
66521;SDS011;53349;53.538;8.584;2022-09-12T12:59:47;8.45;;;4.10;;
66521;SDS011;53349;53.538;8.584;2022-09-12T13:02:19;6.18;;;3.60;;
66521;SDS011;53349;53.538;8.584;2022-09-12T13:04:49;5.97;;;3.70;;
66521;SDS011;53349;53.538;8.584;2022-09-12T13:07:24;8.67;;;3.63;;
66521;SDS011;53349;53.538;8.584;2022-09-12T13:09:59;6.00;;;3.47;;
66521;SDS011;53349;53.538;8.584;2022-09-12T13:15:00;6.00;;;3.47;;
66521;SDS011;53349;53.538;8.584;2022-09-12T13:17:34;6.60;;;3.50;;
66521;SDS011;53349;53.538;8.584;2022-09-12T13:20:18;7.80;;;3.30;;
66521;SDS011;53349;53.538;8.584;2022-09-12T13:22:48;9.10;;;4.93;;
66521;SDS011;53349;53.538;8.584;2022-09-12T13:27:55;6.75;;;3.70;;
66521;SDS011;53349;53.538;8.584;2022-09-12T13:30:25;6.65;;;3.42;;
66521;SDS011;53349;53.538;8.584;2022-09-12T13:32:52;5.60;;;3.23;;
66521;SDS011;53349;53.538;8.584;2022-09-12T13:35:24;6.43;;;2.88;;
66521;SDS011;53349;53.538;8.584;2022-09-12T13:38:15;6.25;;;3.08;;
66521;SDS011;53349;53.538;8.584;2022-09-12T13:41:00;6.03;;;3.15;;
66521;SDS011;53349;53.538;8.584;2022-09-12T13:43:46;6.72;;;3.72;;
66521;SDS011;53349;53.538;8.584;2022-09-12T13:46:15;6.97;;;4.03;;
66521;SDS011;53349;53.538;8.584;2022-09-12T13:48:45;5.90;;;2.70;;
66521;SDS011;53349;53.538;8.584;2022-09-12T13:51:25;5.70;;;3.10;;
66521;SDS011;53349;53.538;8.584;2022-09-12T13:53:53;4.97;;;2.70;;
66521;SDS011;53349;53.538;8.584;2022-09-12T13:56:21;5.50;;;2.80;;
66521;SDS011;53349;53.538;8.584;2022-09-12T13:58:51;5.82;;;3.05;;
66521;SDS011;53349;53.538;8.584;2022-09-12T14:01:23;8.63;;;4.10;;
66521;SDS011;53349;53.538;8.584;2022-09-12T14:04:00;8.35;;;3.95;;
66521;SDS011;53349;53.538;8.584;2022-09-12T14:06:56;5.82;;;3.13;;
66521;SDS011;53349;53.538;8.584;2022-09-12T14:09:24;5.40;;;3.00;;
66521;SDS011;53349;53.538;8.584;2022-09-12T14:11:53;5.65;;;3.05;;
66521;SDS011;53349;53.538;8.584;2022-09-12T14:14:32;5.03;;;2.40;;
66521;SDS011;53349;53.538;8.584;2022-09-12T14:17:01;5.35;;;2.70;;
66521;SDS011;53349;53.538;8.584;2022-09-12T14:19:40;5.68;;;2.90;;
66521;SDS011;53349;53.538;8.584;2022-09-12T14:22:07;8.20;;;2.83;;
66521;SDS011;53349;53.538;8.584;2022-09-12T14:24:37;5.82;;;2.80;;
66521;SDS011;53349;53.538;8.584;2022-09-12T14:27:03;6.27;;;2.73;;
66521;SDS011;53349;53.538;8.584;2022-09-12T14:29:28;7.65;;;2.42;;
66521;SDS011;53349;53.538;8.584;2022-09-12T14:32:01;4.73;;;2.53;;
66521;SDS011;53349;53.538;8.584;2022-09-12T14:34:28;6.25;;;2.72;;
66521;SDS011;53349;53.538;8.584;2022-09-12T14:36:54;5.88;;;2.92;;
66521;SDS011;53349;53.538;8.584;2022-09-12T14:39:23;6.95;;;2.70;;
66521;SDS011;53349;53.538;8.584;2022-09-12T14:42:04;4.70;;;2.55;;
66521;SDS011;53349;53.538;8.584;2022-09-12T14:44:31;4.03;;;2.17;;
66521;SDS011;53349;53.538;8.584;2022-09-12T14:47:00;6.53;;;3.10;;
66521;SDS011;53349;53.538;8.584;2022-09-12T14:49:36;6.85;;;2.85;;
66521;SDS011;53349;53.538;8.584;2022-09-12T14:52:06;5.73;;;2.80;;
66521;SDS011;53349;53.538;8.584;2022-09-12T14:54:54;6.72;;;2.60;;
66521;SDS011;53349;53.538;8.584;2022-09-12T14:57:40;5.20;;;2.80;;
66521;SDS011;53349;53.538;8.584;2022-09-12T15:00:14;6.38;;;2.78;;
66521;SDS011;53349;53.538;8.584;2022-09-12T15:02:44;5.68;;;2.95;;
66521;SDS011;53349;53.538;8.584;2022-09-12T15:10:06;6.85;;;3.60;;
66521;SDS011;53349;53.538;8.584;2022-09-12T15:13:02;7.57;;;3.53;;
66521;SDS011;53349;53.538;8.584;2022-09-12T15:15:36;7.60;;;4.22;;
66521;SDS011;53349;53.538;8.584;2022-09-12T15:18:02;7.70;;;3.80;;
66521;SDS011;53349;53.538;8.584;2022-09-12T15:20:29;7.47;;;3.40;;
66521;SDS011;53349;53.538;8.584;2022-09-12T15:22:55;7.82;;;3.45;;
66521;SDS011;53349;53.538;8.584;2022-09-12T15:25:21;8.43;;;4.60;;
66521;SDS011;53349;53.538;8.584;2022-09-12T15:27:47;7.17;;;4.03;;
66521;SDS011;53349;53.538;8.584;2022-09-12T15:30:16;7.47;;;3.67;;
66521;SDS011;53349;53.538;8.584;2022-09-12T15:32:41;5.97;;;3.60;;
66521;SDS011;53349;53.538;8.584;2022-09-12T15:35:11;7.65;;;3.30;;
66521;SDS011;53349;53.538;8.584;2022-09-12T15:37:41;8.27;;;3.50;;
66521;SDS011;53349;53.538;8.584;2022-09-12T15:40:06;6.73;;;3.60;;
66521;SDS011;53349;53.538;8.584;2022-09-12T15:42:33;6.07;;;3.50;;
66521;SDS011;53349;53.538;8.584;2022-09-12T15:44:58;9.85;;;4.50;;
66521;SDS011;53349;53.538;8.584;2022-09-12T15:47:24;8.23;;;3.70;;
66521;SDS011;53349;53.538;8.584;2022-09-12T15:49:50;7.30;;;3.60;;
66521;SDS011;53349;53.538;8.584;2022-09-12T15:52:15;6.43;;;3.27;;
66521;SDS011;53349;53.538;8.584;2022-09-12T15:54:43;6.63;;;2.90;;
66521;SDS011;53349;53.538;8.584;2022-09-12T15:57:09;7.00;;;3.77;;
66521;SDS011;53349;53.538;8.584;2022-09-12T15:59:34;6.40;;;3.43;;
66521;SDS011;53349;53.538;8.584;2022-09-12T16:02:00;7.38;;;4.10;;
66521;SDS011;53349;53.538;8.584;2022-09-12T16:04:27;11.10;;;5.38;;
66521;SDS011;53349;53.538;8.584;2022-09-12T16:06:54;8.77;;;4.57;;
66521;SDS011;53349;53.538;8.584;2022-09-12T16:09:20;8.20;;;3.45;;
66521;SDS011;53349;53.538;8.584;2022-09-12T16:11:46;7.20;;;3.40;;
66521;SDS011;53349;53.538;8.584;2022-09-12T16:14:12;6.20;;;3.17;;
66521;SDS011;53349;53.538;8.584;2022-09-12T16:16:39;7.65;;;3.70;;
66521;SDS011;53349;53.538;8.584;2022-09-12T16:19:05;8.43;;;3.50;;
66521;SDS011;53349;53.538;8.584;2022-09-12T16:21:31;7.60;;;3.53;;
66521;SDS011;53349;53.538;8.584;2022-09-12T16:23:56;7.18;;;3.40;;
66521;SDS011;53349;53.538;8.584;2022-09-12T16:26:22;6.87;;;3.30;;
66521;SDS011;53349;53.538;8.584;2022-09-12T16:28:52;8.10;;;3.20;;
66521;SDS011;53349;53.538;8.584;2022-09-12T16:31:19;6.35;;;3.10;;
66521;SDS011;53349;53.538;8.584;2022-09-12T16:33:45;6.80;;;3.50;;
66521;SDS011;53349;53.538;8.584;2022-09-12T16:36:11;6.17;;;3.73;;
66521;SDS011;53349;53.538;8.584;2022-09-12T16:38:43;7.65;;;4.03;;
66521;SDS011;53349;53.538;8.584;2022-09-12T16:41:09;6.93;;;3.75;;
66521;SDS011;53349;53.538;8.584;2022-09-12T16:43:35;6.80;;;3.63;;
66521;SDS011;53349;53.538;8.584;2022-09-12T16:46:02;6.10;;;3.77;;
66521;SDS011;53349;53.538;8.584;2022-09-12T16:48:29;7.90;;;3.60;;
66521;SDS011;53349;53.538;8.584;2022-09-12T16:50:55;5.63;;;3.13;;
66521;SDS011;53349;53.538;8.584;2022-09-12T16:53:21;6.93;;;3.58;;
66521;SDS011;53349;53.538;8.584;2022-09-12T16:55:47;7.80;;;3.40;;
66521;SDS011;53349;53.538;8.584;2022-09-12T16:58:13;6.70;;;3.30;;
66521;SDS011;53349;53.538;8.584;2022-09-12T17:00:39;7.43;;;4.33;;